sensor_id;sensor_type;location;lat;lon;timestamp;P1;durP1;ratioP1;P2;durP2;ratioP2
10440;SDS011;5268;49.346;9.522;2024-03-08T04:12:52;21.23;;;13.90;;
10440;SDS011;5268;49.346;9.522;2024-03-08T04:17:58;19.73;;;14.38;;
10440;SDS011;5268;49.346;9.522;2024-03-08T04:23:00;19.73;;;14.18;;
10440;SDS011;5268;49.346;9.522;2024-03-08T04:28:06;21.80;;;15.40;;
10440;SDS011;5268;49.346;9.522;2024-03-08T04:33:10;23.02;;;14.73;;
10440;SDS011;5268;49.346;9.522;2024-03-08T04:38:12;21.23;;;14.20;;
10440;SDS011;5268;49.346;9.522;2024-03-08T04:43:17;22.55;;;15.63;;
10440;SDS011;5268;49.346;9.522;2024-03-08T04:48:20;22.52;;;14.60;;
10440;SDS011;5268;49.346;9.522;2024-03-08T04:53:22;22.15;;;14.73;;
10440;SDS011;5268;49.346;9.522;2024-03-08T04:58:26;23.33;;;15.48;;
10440;SDS011;5268;49.346;9.522;2024-03-08T05:03:45;21.08;;;14.77;;
10440;SDS011;5268;49.346;9.522;2024-03-08T05:08:57;22.15;;;15.50;;
10440;SDS011;5268;49.346;9.522;2024-03-08T05:14:15;22.98;;;14.50;;
10440;SDS011;5268;49.346;9.522;2024-03-08T05:19:20;23.38;;;14.80;;
10440;SDS011;5268;49.346;9.522;2024-03-08T05:24:31;21.85;;;15.15;;
10440;SDS011;5268;49.346;9.522;2024-03-08T05:29:45;22.35;;;14.80;;
10440;SDS011;5268;49.346;9.522;2024-03-08T05:45:26;23.08;;;15.45;;
10440;SDS011;5268;49.346;9.522;2024-03-08T05:50:39;20.95;;;14.40;;
10440;SDS011;5268;49.346;9.522;2024-03-08T05:56:08;21.83;;;15.20;;
10440;SDS011;5268;49.346;9.522;2024-03-08T06:07:29;21.48;;;14.60;;
10440;SDS011;5268;49.346;9.522;2024-03-08T06:15:02;21.05;;;15.13;;
10440;SDS011;5268;49.346;9.522;2024-03-08T06:25:32;23.27;;;15.40;;
10440;SDS011;5268;49.346;9.522;2024-03-08T06:31:21;21.48;;;15.13;;
10440;SDS011;5268;49.346;9.522;2024-03-08T06:42:43;22.80;;;14.98;;
10440;SDS011;5268;49.346;9.522;2024-03-08T06:48:09;20.85;;;14.07;;
10440;SDS011;5268;49.346;9.522;2024-03-08T06:54:10;21.65;;;14.93;;
10440;SDS011;5268;49.346;9.522;2024-03-08T06:59:24;19.50;;;14.25;;
10440;SDS011;5268;49.346;9.522;2024-03-08T07:05:03;22.23;;;14.98;;
10440;SDS011;5268;49.346;9.522;2024-03-08T07:10:17;22.45;;;13.95;;
10440;SDS011;5268;49.346;9.522;2024-03-08T07:15:47;22.70;;;14.75;;
10440;SDS011;5268;49.346;9.522;2024-03-08T07:21:23;19.73;;;14.75;;
10440;SDS011;5268;49.346;9.522;2024-03-08T07:32:24;17.85;;;13.50;;
10440;SDS011;5268;49.346;9.522;2024-03-08T07:37:52;18.92;;;14.07;;
10440;SDS011;5268;49.346;9.522;2024-03-08T07:43:04;14.98;;;9.93;;
10440;SDS011;5268;49.346;9.522;2024-03-08T07:59:39;14.93;;;10.85;;
10440;SDS011;5268;49.346;9.522;2024-03-08T08:16:43;11.65;;;8.20;;
10440;SDS011;5268;49.346;9.522;2024-03-08T08:40:08;14.88;;;10.48;;
10440;SDS011;5268;49.346;9.522;2024-03-08T08:45:49;17.45;;;11.70;;
10440;SDS011;5268;49.346;9.522;2024-03-08T08:56:52;16.83;;;10.75;;
10440;SDS011;5268;49.346;9.522;2024-03-08T09:02:23;20.60;;;14.88;;
10440;SDS011;5268;49.346;9.522;2024-03-08T09:07:39;15.18;;;9.93;;
10440;SDS011;5268;49.346;9.522;2024-03-08T09:24:28;16.92;;;10.60;;
10440;SDS011;5268;49.346;9.522;2024-03-08T09:29:34;15.48;;;9.05;;
10440;SDS011;5268;49.346;9.522;2024-03-08T09:35:07;14.57;;;10.30;;
10440;SDS011;5268;49.346;9.522;2024-03-08T09:40:29;14.20;;;10.27;;
10440;SDS011;5268;49.346;9.522;2024-03-08T09:57:28;15.00;;;9.95;;
10440;SDS011;5268;49.346;9.522;2024-03-08T10:02:31;15.68;;;11.40;;
10440;SDS011;5268;49.346;9.522;2024-03-08T10:19:18;16.65;;;11.55;;
10440;SDS011;5268;49.346;9.522;2024-03-08T10:24:45;17.38;;;10.82;;
10440;SDS011;5268;49.346;9.522;2024-03-08T10:30:36;15.13;;;11.68;;
10440;SDS011;5268;49.346;9.522;2024-03-08T10:36:13;16.05;;;11.35;;
10440;SDS011;5268;49.346;9.522;2024-03-08T10:41:21;16.90;;;11.07;;
10440;SDS011;5268;49.346;9.522;2024-03-08T10:46:29;15.10;;;12.00;;
10440;SDS011;5268;49.346;9.522;2024-03-08T10:51:40;14.63;;;11.55;;
10440;SDS011;5268;49.346;9.522;2024-03-08T10:56:44;13.88;;;8.80;;
10440;SDS011;5268;49.346;9.522;2024-03-08T11:07:53;15.25;;;11.15;;
10440;SDS011;5268;49.346;9.522;2024-03-08T11:18:55;14.95;;;11.45;;
10440;SDS011;5268;49.346;9.522;2024-03-08T11:24:37;14.68;;;11.23;;
10440;SDS011;5268;49.346;9.522;2024-03-08T11:35:46;15.38;;;10.88;;
10440;SDS011;5268;49.346;9.522;2024-03-08T11:41:05;15.93;;;11.70;;
10440;SDS011;5268;49.346;9.522;2024-03-08T11:46:19;15.18;;;11.23;;
10440;SDS011;5268;49.346;9.522;2024-03-08T11:51:50;15.60;;;9.98;;
10440;SDS011;5268;49.346;9.522;2024-03-08T11:57:17;14.95;;;10.70;;
10440;SDS011;5268;49.346;9.522;2024-03-08T12:02:19;14.00;;;10.70;;
10440;SDS011;5268;49.346;9.522;2024-03-08T12:07:37;15.55;;;10.35;;
10440;SDS011;5268;49.346;9.522;2024-03-08T12:12:39;14.88;;;11.32;;
10440;SDS011;5268;49.346;9.522;2024-03-08T12:23:19;15.45;;;11.45;;
10440;SDS011;5268;49.346;9.522;2024-03-08T12:28:28;12.88;;;9.30;;
10440;SDS011;5268;49.346;9.522;2024-03-08T12:33:42;15.73;;;11.48;;
10440;SDS011;5268;49.346;9.522;2024-03-08T12:38:52;14.77;;;8.60;;
10440;SDS011;5268;49.346;9.522;2024-03-08T12:43:55;15.00;;;10.82;;
10440;SDS011;5268;49.346;9.522;2024-03-08T12:49:00;15.30;;;11.20;;
10440;SDS011;5268;49.346;9.522;2024-03-08T12:54:06;14.77;;;11.55;;
10440;SDS011;5268;49.346;9.522;2024-03-08T12:59:08;14.07;;;10.70;;
10440;SDS011;5268;49.346;9.522;2024-03-08T13:04:11;15.05;;;11.55;;
10440;SDS011;5268;49.346;9.522;2024-03-08T13:09:16;13.63;;;11.10;;
10440;SDS011;5268;49.346;9.522;2024-03-08T13:14:20;14.15;;;10.73;;
10440;SDS011;5268;49.346;9.522;2024-03-08T13:19:27;16.10;;;11.98;;
10440;SDS011;5268;49.346;9.522;2024-03-08T13:24:31;15.07;;;11.50;;
10440;SDS011;5268;49.346;9.522;2024-03-08T13:29:33;13.82;;;10.07;;
10440;SDS011;5268;49.346;9.522;2024-03-08T13:34:51;14.55;;;11.65;;
10440;SDS011;5268;49.346;9.522;2024-03-08T13:40:01;15.60;;;10.85;;
10440;SDS011;5268;49.346;9.522;2024-03-08T13:45:17;15.63;;;10.02;;
10440;SDS011;5268;49.346;9.522;2024-03-08T13:50:22;14.75;;;11.27;;
10440;SDS011;5268;49.346;9.522;2024-03-08T13:55:28;13.35;;;9.68;;
10440;SDS011;5268;49.346;9.522;2024-03-08T14:00:30;13.25;;;10.63;;
10440;SDS011;5268;49.346;9.522;2024-03-08T14:05:33;12.48;;;9.77;;
10440;SDS011;5268;49.346;9.522;2024-03-08T14:10:37;16.42;;;11.98;;
10440;SDS011;5268;49.346;9.522;2024-03-08T14:15:51;16.23;;;11.68;;
10440;SDS011;5268;49.346;9.522;2024-03-08T14:20:59;15.38;;;11.20;;
10440;SDS011;5268;49.346;9.522;2024-03-08T14:26:05;13.95;;;9.30;;
10440;SDS011;5268;49.346;9.522;2024-03-08T14:31:10;14.73;;;10.93;;
10440;SDS011;5268;49.346;9.522;2024-03-08T14:36:12;11.00;;;7.18;;
10440;SDS011;5268;49.346;9.522;2024-03-08T14:41:15;13.60;;;10.15;;
10440;SDS011;5268;49.346;9.522;2024-03-08T14:46:23;13.00;;;10.45;;
10440;SDS011;5268;49.346;9.522;2024-03-08T14:51:31;13.43;;;10.68;;
10440;SDS011;5268;49.346;9.522;2024-03-08T14:56:34;11.80;;;9.18;;
10440;SDS011;5268;49.346;9.522;2024-03-08T15:01:36;13.88;;;10.77;;
10440;SDS011;5268;49.346;9.522;2024-03-08T15:06:39;14.13;;;11.05;;
10440;SDS011;5268;49.346;9.522;2024-03-08T15:11:45;14.15;;;9.73;;
10440;SDS011;5268;49.346;9.522;2024-03-08T15:16:49;11.73;;;9.00;;
10440;SDS011;5268;49.346;9.522;2024-03-08T15:21:51;13.63;;;9.43;;
10440;SDS011;5268;49.346;9.522;2024-03-08T15:26:58;12.75;;;9.20;;
10440;SDS011;5268;49.346;9.522;2024-03-08T15:32:02;13.35;;;8.77;;
10440;SDS011;5268;49.346;9.522;2024-03-08T15:37:04;10.30;;;8.68;;
10440;SDS011;5268;49.346;9.522;2024-03-08T15:42:08;11.57;;;8.55;;
10440;SDS011;5268;49.346;9.522;2024-03-08T15:47:11;11.60;;;8.23;;
10440;SDS011;5268;49.346;9.522;2024-03-08T15:52:13;12.93;;;9.38;;
10440;SDS011;5268;49.346;9.522;2024-03-08T15:57:16;12.60;;;9.50;;
10440;SDS011;5268;49.346;9.522;2024-03-08T16:02:20;11.73;;;8.80;;
10440;SDS011;5268;49.346;9.522;2024-03-08T16:07:25;11.85;;;8.65;;
10440;SDS011;5268;49.346;9.522;2024-03-08T16:12:28;12.30;;;8.68;;
10440;SDS011;5268;49.346;9.522;2024-03-08T16:17:31;10.93;;;8.45;;
10440;SDS011;5268;49.346;9.522;2024-03-08T16:22:33;12.77;;;9.15;;
10440;SDS011;5268;49.346;9.522;2024-03-08T16:27:37;11.35;;;8.68;;
10440;SDS011;5268;49.346;9.522;2024-03-08T16:32:41;13.52;;;8.98;;
10440;SDS011;5268;49.346;9.522;2024-03-08T16:37:43;10.95;;;8.55;;
10440;SDS011;5268;49.346;9.522;2024-03-08T16:42:46;13.43;;;8.70;;
10440;SDS011;5268;49.346;9.522;2024-03-08T16:47:52;10.85;;;8.60;;
10440;SDS011;5268;49.346;9.522;2024-03-08T16:52:55;11.60;;;8.10;;
10440;SDS011;5268;49.346;9.522;2024-03-08T16:57:58;10.23;;;8.13;;
10440;SDS011;5268;49.346;9.522;2024-03-08T17:03:00;10.27;;;7.93;;
10440;SDS011;5268;49.346;9.522;2024-03-08T17:08:02;9.75;;;8.07;;
10440;SDS011;5268;49.346;9.522;2024-03-08T17:13:06;10.02;;;7.50;;
10440;SDS011;5268;49.346;9.522;2024-03-08T17:18:08;9.30;;;7.35;;
10440;SDS011;5268;49.346;9.522;2024-03-08T17:23:10;11.68;;;7.13;;
10440;SDS011;5268;49.346;9.522;2024-03-08T17:28:16;10.40;;;7.00;;
10440;SDS011;5268;49.346;9.522;2024-03-08T17:33:18;9.63;;;7.20;;
10440;SDS011;5268;49.346;9.522;2024-03-08T17:38:21;8.93;;;6.97;;
10440;SDS011;5268;49.346;9.522;2024-03-08T17:43:26;10.15;;;7.78;;
10440;SDS011;5268;49.346;9.522;2024-03-08T17:48:27;8.38;;;7.20;;
10440;SDS011;5268;49.346;9.522;2024-03-08T17:53:29;8.05;;;6.68;;
10440;SDS011;5268;49.346;9.522;2024-03-08T17:58:34;7.43;;;5.97;;
10440;SDS011;5268;49.346;9.522;2024-03-08T18:03:36;9.85;;;6.28;;
10440;SDS011;5268;49.346;9.522;2024-03-08T18:08:38;9.88;;;6.97;;
10440;SDS011;5268;49.346;9.522;2024-03-08T18:13:44;8.32;;;6.68;;
10440;SDS011;5268;49.346;9.522;2024-03-08T18:18:47;8.13;;;6.30;;
10440;SDS011;5268;49.346;9.522;2024-03-08T18:23:51;9.80;;;6.63;;
10440;SDS011;5268;49.346;9.522;2024-03-08T18:28:54;8.13;;;6.30;;
10440;SDS011;5268;49.346;9.522;2024-03-08T18:33:56;8.05;;;6.22;;
10440;SDS011;5268;49.346;9.522;2024-03-08T18:38:59;8.32;;;6.40;;
10440;SDS011;5268;49.346;9.522;2024-03-08T18:44:05;11.25;;;8.20;;
10440;SDS011;5268;49.346;9.522;2024-03-08T18:49:07;9.95;;;7.70;;
10440;SDS011;5268;49.346;9.522;2024-03-08T18:54:09;10.07;;;7.65;;
10440;SDS011;5268;49.346;9.522;2024-03-08T18:59:14;11.63;;;7.60;;
10440;SDS011;5268;49.346;9.522;2024-03-08T19:04:16;11.68;;;7.30;;
10440;SDS011;5268;49.346;9.522;2024-03-08T19:09:18;7.78;;;6.28;;
10440;SDS011;5268;49.346;9.522;2024-03-08T19:14:21;8.63;;;5.93;;
10440;SDS011;5268;49.346;9.522;2024-03-08T19:19:23;11.18;;;7.80;;
10440;SDS011;5268;49.346;9.522;2024-03-08T19:24:25;12.70;;;8.60;;
10440;SDS011;5268;49.346;9.522;2024-03-08T19:29:29;14.48;;;10.45;;
10440;SDS011;5268;49.346;9.522;2024-03-08T19:34:31;19.15;;;12.50;;
10440;SDS011;5268;49.346;9.522;2024-03-08T19:39:33;9.60;;;7.03;;
10440;SDS011;5268;49.346;9.522;2024-03-08T19:44:37;8.95;;;6.68;;
10440;SDS011;5268;49.346;9.522;2024-03-08T19:49:40;7.97;;;5.90;;
10440;SDS011;5268;49.346;9.522;2024-03-08T19:54:42;8.45;;;6.43;;
10440;SDS011;5268;49.346;9.522;2024-03-08T19:59:45;12.77;;;10.00;;
10440;SDS011;5268;49.346;9.522;2024-03-08T20:04:47;10.30;;;7.45;;
10440;SDS011;5268;49.346;9.522;2024-03-08T20:09:49;11.88;;;8.15;;
10440;SDS011;5268;49.346;9.522;2024-03-08T20:14:52;10.18;;;7.72;;
10440;SDS011;5268;49.346;9.522;2024-03-08T20:19:54;12.80;;;9.63;;
10440;SDS011;5268;49.346;9.522;2024-03-08T20:24:56;11.52;;;9.05;;
10440;SDS011;5268;49.346;9.522;2024-03-08T20:30:00;9.93;;;6.88;;
10440;SDS011;5268;49.346;9.522;2024-03-08T20:35:02;10.55;;;7.78;;
10440;SDS011;5268;49.346;9.522;2024-03-08T20:40:04;10.20;;;7.93;;
10440;SDS011;5268;49.346;9.522;2024-03-08T20:45:08;9.23;;;6.65;;
10440;SDS011;5268;49.346;9.522;2024-03-08T20:50:10;9.93;;;7.80;;
10440;SDS011;5268;49.346;9.522;2024-03-08T20:55:13;10.45;;;8.27;;
10440;SDS011;5268;49.346;9.522;2024-03-08T21:00:19;11.05;;;8.30;;
10440;SDS011;5268;49.346;9.522;2024-03-08T21:05:35;11.05;;;8.50;;
10440;SDS011;5268;49.346;9.522;2024-03-08T21:10:38;11.68;;;8.68;;
10440;SDS011;5268;49.346;9.522;2024-03-08T21:15:42;10.85;;;8.80;;
10440;SDS011;5268;49.346;9.522;2024-03-08T21:20:44;9.43;;;7.38;;
10440;SDS011;5268;49.346;9.522;2024-03-08T21:25:46;9.43;;;7.10;;
10440;SDS011;5268;49.346;9.522;2024-03-08T21:30:50;9.90;;;7.25;;
10440;SDS011;5268;49.346;9.522;2024-03-08T21:35:53;10.60;;;7.60;;
10440;SDS011;5268;49.346;9.522;2024-03-08T21:40:55;9.25;;;7.80;;
10440;SDS011;5268;49.346;9.522;2024-03-08T21:46:02;9.05;;;7.00;;
10440;SDS011;5268;49.346;9.522;2024-03-08T21:51:04;9.88;;;7.80;;
10440;SDS011;5268;49.346;9.522;2024-03-08T21:56:07;9.25;;;7.68;;
10440;SDS011;5268;49.346;9.522;2024-03-08T22:01:11;10.52;;;7.07;;
10440;SDS011;5268;49.346;9.522;2024-03-08T22:06:13;11.65;;;8.10;;
10440;SDS011;5268;49.346;9.522;2024-03-08T22:11:15;10.90;;;8.52;;
10440;SDS011;5268;49.346;9.522;2024-03-08T22:16:18;12.27;;;8.32;;
10440;SDS011;5268;49.346;9.522;2024-03-08T22:21:20;12.07;;;8.70;;
10440;SDS011;5268;49.346;9.522;2024-03-08T22:26:22;11.73;;;9.02;;
10440;SDS011;5268;49.346;9.522;2024-03-08T22:31:26;11.43;;;8.77;;
10440;SDS011;5268;49.346;9.522;2024-03-08T22:36:28;13.00;;;8.77;;
10440;SDS011;5268;49.346;9.522;2024-03-08T22:41:30;12.15;;;8.98;;
10440;SDS011;5268;49.346;9.522;2024-03-08T22:46:38;12.43;;;8.63;;
10440;SDS011;5268;49.346;9.522;2024-03-08T22:51:40;12.25;;;8.85;;
